createdAt,value
2017-03-23T00:00:31.092Z,21.4
2017-03-23T00:01:41.014Z,21.35
2017-03-23T00:02:50.929Z,21.35
2017-03-23T00:04:00.868Z,21.42
2017-03-23T00:05:10.417Z,21.42
2017-03-23T00:06:20.319Z,21.37
2017-03-23T00:07:30.272Z,21.38
2017-03-23T00:08:40.492Z,21.35
2017-03-23T00:09:50.393Z,21.37
2017-03-23T00:10:59.949Z,21.37
2017-03-23T00:12:09.858Z,21.38
2017-03-23T00:13:19.763Z,21.34
2017-03-23T00:14:29.677Z,21.37
2017-03-23T00:15:39.580Z,21.37
2017-03-23T00:16:49.830Z,21.35
2017-03-23T00:17:59.426Z,21.37
2017-03-23T00:19:09.017Z,21.38
2017-03-23T00:20:19.222Z,21.34
2017-03-23T00:21:29.427Z,21.4
2017-03-23T00:22:38.973Z,21.35
2017-03-23T00:23:49.187Z,21.37
2017-03-23T00:24:58.541Z,21.34
2017-03-23T00:26:08.151Z,21.43
2017-03-23T00:27:18.360Z,21.42
2017-03-23T00:28:28.260Z,21.34
2017-03-23T00:29:37.898Z,21.35
2017-03-23T00:30:48.112Z,21.4
2017-03-23T00:31:58.020Z,21.42
2017-03-23T00:33:07.920Z,21.38
2017-03-23T00:34:18.168Z,21.37
2017-03-23T00:35:28.077Z,21.4
2017-03-23T00:36:37.976Z,21.35
2017-03-23T00:37:48.270Z,21.37
2017-03-23T00:38:58.491Z,21.42
2017-03-23T00:40:07.893Z,21.35
2017-03-23T00:41:17.499Z,21.4
2017-03-23T00:42:27.102Z,21.34
2017-03-23T00:43:37.020Z,21.4
2017-03-23T00:44:46.307Z,21.35
2017-03-23T00:45:56.783Z,21.4
2017-03-23T00:47:06.993Z,21.4
2017-03-23T00:48:16.911Z,21.38
2017-03-23T00:49:26.807Z,21.37
2017-03-23T00:50:36.718Z,21.28
2017-03-23T00:51:46.717Z,21.42
2017-03-23T00:52:56.621Z,21.37
2017-03-23T00:54:06.879Z,21.38
2017-03-23T00:55:16.475Z,21.4
2017-03-23T00:56:26.675Z,21.35
2017-03-23T00:57:36.112Z,21.32
2017-03-23T00:58:45.717Z,21.31
2017-03-23T00:59:55.619Z,21.38
2017-03-23T01:01:04.899Z,21.34
2017-03-23T01:02:14.809Z,21.35
2017-03-23T01:03:24.660Z,21.29
2017-03-23T01:04:34.560Z,21.37
2017-03-23T01:05:44.470Z,21.32
2017-03-23T01:06:54.400Z,21.37
2017-03-23T01:08:04.630Z,21.29
2017-03-23T01:09:14.277Z,21.29
2017-03-23T01:10:23.873Z,21.31
2017-03-23T01:11:33.774Z,21.32
2017-03-23T01:12:43.377Z,21.28
2017-03-23T01:13:53.289Z,21.31
2017-03-23T01:15:02.520Z,21.38
2017-03-23T01:16:12.422Z,21.31
2017-03-23T01:17:22.324Z,21.27
2017-03-23T01:18:32.223Z,21.31
2017-03-23T01:19:42.144Z,21.32
2017-03-23T01:20:52.047Z,21.29
2017-03-23T01:22:01.960Z,21.34
2017-03-23T01:23:12.190Z,21.27
2017-03-23T01:24:22.107Z,21.32
2017-03-23T01:25:31.714Z,21.35
2017-03-23T01:26:41.340Z,21.32
2017-03-23T01:27:50.938Z,21.31
2017-03-23T01:29:00.284Z,21.35
2017-03-23T01:30:09.894Z,21.21
2017-03-23T01:31:20.107Z,21.28
2017-03-23T01:32:30.775Z,21.35
2017-03-23T01:33:40.980Z,21.28
2017-03-23T01:34:51.216Z,21.31
2017-03-23T01:36:01.119Z,21.34
2017-03-23T01:37:10.730Z,21.28
2017-03-23T01:38:20.644Z,21.25
2017-03-23T01:39:30.249Z,21.28
2017-03-23T01:40:40.152Z,21.32
2017-03-23T01:41:50.069Z,21.29
2017-03-23T01:43:00.012Z,21.29
2017-03-23T01:44:09.964Z,21.24
2017-03-23T01:45:19.873Z,21.31
2017-03-23T01:46:30.094Z,21.34
2017-03-23T01:47:40.010Z,21.34
2017-03-23T01:48:49.918Z,21.28
2017-03-23T01:50:00.552Z,21.24
2017-03-23T01:51:10.145Z,21.21
2017-03-23T01:52:19.449Z,21.22
2017-03-23T01:53:29.345Z,21.22
2017-03-23T01:54:39.247Z,21.24
2017-03-23T01:55:48.953Z,21.24
2017-03-23T01:56:59.164Z,21.24
2017-03-23T01:58:08.780Z,21.29
2017-03-23T01:59:18.684Z,21.24
2017-03-23T02:00:28.595Z,21.24
2017-03-23T02:01:38.433Z,21.31
2017-03-23T02:02:48.657Z,21.28
2017-03-23T02:03:58.867Z,21.29
2017-03-23T02:05:08.761Z,21.27
2017-03-23T02:06:18.967Z,21.27
2017-03-23T02:07:29.276Z,21.25
2017-03-23T02:08:38.871Z,21.24
2017-03-23T02:09:49.097Z,21.25
2017-03-23T02:10:58.684Z,21.25
2017-03-23T02:12:08.898Z,21.28
2017-03-23T02:13:19.459Z,21.27
2017-03-23T02:14:29.401Z,21.21
2017-03-23T02:15:39.316Z,21.24
2017-03-23T02:16:49.542Z,21.27
2017-03-23T02:17:58.841Z,21.24
2017-03-23T02:19:08.786Z,21.17
2017-03-23T02:20:18.398Z,21.19
2017-03-23T02:21:28.612Z,21.17
2017-03-23T02:22:38.534Z,21.27
2017-03-23T02:23:47.819Z,21.17
2017-03-23T02:24:58.123Z,21.22
2017-03-23T02:26:08.029Z,21.22
2017-03-23T02:27:17.627Z,21.24
2017-03-23T02:28:27.833Z,21.27
2017-03-23T02:29:37.754Z,21.21
2017-03-23T02:30:47.711Z,21.22
2017-03-23T02:31:57.308Z,21.24
2017-03-23T02:33:07.520Z,21.16
2017-03-23T02:34:17.480Z,21.16
2017-03-23T02:35:27.702Z,21.13
2017-03-23T02:36:37.459Z,21.09
2017-03-23T02:37:47.068Z,21.14
2017-03-23T02:38:56.973Z,21.16
2017-03-23T02:40:06.885Z,21.1
2017-03-23T02:41:16.479Z,21.12
2017-03-23T02:42:27.016Z,21.12
2017-03-23T02:43:36.303Z,21.16
2017-03-23T02:44:46.195Z,21.13
2017-03-23T02:45:56.427Z,21.13
2017-03-23T02:47:06.656Z,21.17
2017-03-23T02:48:17.230Z,21.13
2017-03-23T02:49:27.460Z,21.16
2017-03-23T02:50:37.408Z,21.13
2017-03-23T02:51:47.020Z,21.14
2017-03-23T02:52:56.618Z,21.16
2017-03-23T02:54:06.367Z,21.13
2017-03-23T02:55:15.968Z,21.14
2017-03-23T02:56:25.886Z,21.1
2017-03-23T02:57:36.103Z,21.12
2017-03-23T02:58:46.328Z,21.13
2017-03-23T02:59:55.739Z,21.13
2017-03-23T03:01:05.643Z,21.13
2017-03-23T03:02:15.844Z,21.09
2017-03-23T03:03:25.781Z,21.13
2017-03-23T03:04:36.001Z,21.19
2017-03-23T03:05:46.501Z,21.13
2017-03-23T03:06:56.096Z,21.14
2017-03-23T03:08:05.694Z,21.06
2017-03-23T03:09:15.622Z,21.14
2017-03-23T03:10:25.221Z,21.16
2017-03-23T03:11:35.213Z,21.16
2017-03-23T03:12:44.193Z,21.12
2017-03-23T03:13:54.090Z,21.14
2017-03-23T03:15:03.989Z,21.13
2017-03-23T03:16:13.282Z,21.03
2017-03-23T03:17:23.330Z,21.03
2017-03-23T03:18:32.924Z,21.07
2017-03-23T03:19:42.522Z,21.03
2017-03-23T03:20:52.122Z,21.09
2017-03-23T03:22:01.739Z,21.03
2017-03-23T03:23:11.945Z,21.01
2017-03-23T03:24:22.153Z,21.07
2017-03-23T03:25:31.750Z,21.04
2017-03-23T03:26:41.034Z,21.06
2017-03-23T03:27:50.336Z,21.06
2017-03-23T03:29:00.604Z,21.03
2017-03-23T03:30:10.211Z,21.07
2017-03-23T03:31:19.493Z,21.04
2017-03-23T03:32:29.696Z,21.04
2017-03-23T03:33:39.641Z,21.06
2017-03-23T03:34:49.699Z,21.03
2017-03-23T03:35:59.291Z,21.04
2017-03-23T03:37:09.203Z,21.09
2017-03-23T03:38:19.131Z,21.04
2017-03-23T03:39:28.431Z,21.12
2017-03-23T03:40:38.485Z,21.04
2017-03-23T03:41:47.767Z,21.07
2017-03-23T03:42:57.718Z,21.07
2017-03-23T03:44:07.925Z,21.06
2017-03-23T03:45:17.850Z,21.09
2017-03-23T03:46:27.789Z,21.09
2017-03-23T03:47:38.520Z,21.1
2017-03-23T03:48:48.726Z,21.06
2017-03-23T03:49:58.626Z,21.12
2017-03-23T03:51:08.520Z,21.06
2017-03-23T03:52:18.733Z,21.06
2017-03-23T03:53:27.719Z,21.1
2017-03-23T03:54:37.311Z,21.06
2017-03-23T03:55:47.526Z,20.99
2017-03-23T03:56:56.811Z,21.06
2017-03-23T03:58:06.712Z,21.1
2017-03-23T03:59:16.315Z,21.1
2017-03-23T04:00:26.578Z,20.98
2017-03-23T04:01:36.494Z,21.1
2017-03-23T04:02:45.819Z,21.04
2017-03-23T04:03:55.566Z,21.09
2017-03-23T04:05:05.505Z,21.03
2017-03-23T04:06:14.807Z,21.04
2017-03-23T04:07:25.022Z,21.01
2017-03-23T04:08:34.628Z,21.03
2017-03-23T04:09:44.613Z,20.95
2017-03-23T04:10:54.531Z,20.99
2017-03-23T04:12:04.742Z,21.07
2017-03-23T04:13:14.637Z,21.06
2017-03-23T04:14:24.848Z,21.09
2017-03-23T04:15:34.863Z,20.98
2017-03-23T04:16:45.071Z,21.04
2017-03-23T04:17:54.379Z,21.04
2017-03-23T04:19:04.609Z,21.01
2017-03-23T04:20:14.813Z,20.99
2017-03-23T04:21:25.175Z,21.03
2017-03-23T04:22:35.080Z,21.03
2017-03-23T04:23:44.672Z,20.99
2017-03-23T04:24:54.879Z,21.06
2017-03-23T04:26:05.089Z,21.03
2017-03-23T04:27:15.480Z,20.99
2017-03-23T04:28:25.400Z,20.95
2017-03-23T04:29:35.002Z,20.99
2017-03-23T04:30:44.900Z,21.03
2017-03-23T04:31:54.798Z,20.95
2017-03-23T04:33:04.740Z,20.99
2017-03-23T04:34:14.335Z,20.97
2017-03-23T04:35:24.550Z,20.99
2017-03-23T04:36:34.147Z,20.95
2017-03-23T04:37:44.354Z,20.99
2017-03-23T04:38:54.301Z,20.97
2017-03-23T04:40:04.499Z,20.98
2017-03-23T04:41:14.716Z,20.95
2017-03-23T04:42:24.633Z,20.98
2017-03-23T04:43:34.547Z,20.95
2017-03-23T04:44:45.049Z,20.95
2017-03-23T04:45:54.961Z,20.98
2017-03-23T04:47:05.176Z,20.95
2017-03-23T04:48:15.076Z,20.95
2017-03-23T04:49:25.291Z,20.98
2017-03-23T04:50:35.448Z,20.89
2017-03-23T04:51:44.445Z,20.97
2017-03-23T04:52:54.343Z,20.94
2017-03-23T04:54:04.290Z,20.92
2017-03-23T04:55:14.192Z,20.94
2017-03-23T04:56:24.449Z,20.98
2017-03-23T04:57:34.355Z,20.94
2017-03-23T04:58:43.977Z,20.94
2017-03-23T04:59:54.202Z,20.92
2017-03-23T05:01:04.103Z,20.94
2017-03-23T05:02:13.949Z,20.91
2017-03-23T05:03:24.154Z,20.92
2017-03-23T05:04:34.052Z,20.97
2017-03-23T05:05:43.658Z,20.97
2017-03-23T05:06:53.871Z,20.91
2017-03-23T05:08:03.858Z,20.94
2017-03-23T05:09:14.064Z,20.98
2017-03-23T05:10:24.272Z,20.94
2017-03-23T05:11:34.176Z,20.91
2017-03-23T05:12:44.095Z,20.92
2017-03-23T05:13:53.272Z,20.99
2017-03-23T05:15:03.868Z,20.92
2017-03-23T05:16:13.472Z,20.97
2017-03-23T05:17:23.070Z,20.88
2017-03-23T05:18:33.273Z,20.95
2017-03-23T05:19:44.102Z,20.88
2017-03-23T05:20:54.014Z,20.95
2017-03-23T05:22:04.237Z,20.87
2017-03-23T05:23:14.140Z,20.91
2017-03-23T05:24:24.041Z,20.87
2017-03-23T05:25:34.255Z,20.89
2017-03-23T05:26:43.243Z,20.82
2017-03-23T05:27:53.163Z,20.82
2017-03-23T05:29:02.475Z,20.92
2017-03-23T05:30:12.099Z,20.89
2017-03-23T05:31:22.360Z,20.89
2017-03-23T05:32:32.048Z,20.94
2017-03-23T05:33:41.667Z,20.95
2017-03-23T05:34:51.265Z,20.95
2017-03-23T05:36:00.881Z,20.98
2017-03-23T05:37:10.634Z,20.97
2017-03-23T05:38:20.558Z,20.99
2017-03-23T05:39:30.464Z,21.03
2017-03-23T05:40:40.673Z,21.03
2017-03-23T05:41:50.292Z,21.12
2017-03-23T05:43:00.046Z,21.14
2017-03-23T05:44:09.966Z,21.27
2017-03-23T05:45:19.576Z,21.27
2017-03-23T05:46:29.496Z,21.35
2017-03-23T05:47:39.724Z,21.4
2017-03-23T05:48:49.631Z,21.35
2017-03-23T05:49:59.569Z,21.37
2017-03-23T05:51:09.197Z,21.46
2017-03-23T05:52:19.098Z,21.59
2017-03-23T05:53:28.702Z,21.68
2017-03-23T05:54:38.768Z,21.62
2017-03-23T05:55:48.677Z,21.71
2017-03-23T05:56:58.586Z,21.8
2017-03-23T05:58:08.203Z,21.86
2017-03-23T05:59:17.186Z,21.91
2017-03-23T06:00:27.783Z,21.98
2017-03-23T06:01:38.016Z,21.98
2017-03-23T06:02:47.958Z,21.96
2017-03-23T06:03:58.170Z,22.07
2017-03-23T06:05:08.073Z,22.07
2017-03-23T06:06:18.308Z,22.12
2017-03-23T06:07:28.222Z,22.14
2017-03-23T06:08:37.825Z,22.2
2017-03-23T06:09:47.143Z,22.3
2017-03-23T06:10:57.113Z,22.22
2017-03-23T06:12:06.721Z,22.25
2017-03-23T06:13:16.935Z,22.28
2017-03-23T06:14:27.153Z,22.43
2017-03-23T06:15:37.117Z,22.4
2017-03-23T06:16:47.353Z,22.47
2017-03-23T06:17:57.627Z,22.55
2017-03-23T06:19:07.879Z,22.58
2017-03-23T06:20:17.482Z,22.55
2017-03-23T06:21:27.390Z,22.57
2017-03-23T06:22:36.997Z,22.61
2017-03-23T06:23:47.051Z,22.62
2017-03-23T06:24:57.259Z,22.72
2017-03-23T06:26:06.862Z,22.72
2017-03-23T06:27:16.784Z,22.73
2017-03-23T06:28:26.393Z,22.86
2017-03-23T06:29:36.137Z,22.86
2017-03-23T06:30:46.055Z,22.9
2017-03-23T06:31:55.975Z,22.94
2017-03-23T06:33:06.203Z,22.92
2017-03-23T06:34:16.114Z,22.98
2017-03-23T06:35:26.722Z,23.02
2017-03-23T06:36:36.920Z,23.02
2017-03-23T06:37:47.147Z,23.07
2017-03-23T06:38:57.053Z,23.12
2017-03-23T06:40:06.960Z,23.15
2017-03-23T06:41:16.927Z,23.17
2017-03-23T06:42:26.253Z,23.22
2017-03-23T06:43:36.165Z,23.12
2017-03-23T06:44:46.067Z,23.23
2017-03-23T06:45:56.281Z,23.33
2017-03-23T06:47:06.885Z,23.4
2017-03-23T06:48:17.094Z,23.33
2017-03-23T06:49:27.319Z,23.39
2017-03-23T06:50:37.216Z,23.43
2017-03-23T06:51:47.117Z,23.43
2017-03-23T06:52:57.638Z,23.47
2017-03-23T06:54:07.549Z,23.43
2017-03-23T06:55:17.451Z,23.5
2017-03-23T06:56:27.363Z,23.51
2017-03-23T06:57:37.268Z,23.54
2017-03-23T06:58:46.910Z,23.46
2017-03-23T06:59:56.510Z,23.47
2017-03-23T07:01:06.723Z,23.5
2017-03-23T07:02:16.330Z,23.47
2017-03-23T07:03:25.947Z,23.48
2017-03-23T07:04:36.304Z,23.47
2017-03-23T07:05:46.205Z,23.48
2017-03-23T07:06:55.500Z,23.4
2017-03-23T07:08:05.717Z,23.46
2017-03-23T07:09:15.936Z,23.47
2017-03-23T07:10:25.903Z,23.53
2017-03-23T07:11:36.126Z,23.48
2017-03-23T07:12:46.337Z,23.47
2017-03-23T07:13:56.298Z,23.42
2017-03-23T07:15:06.201Z,23.48
2017-03-23T07:16:16.401Z,23.4
2017-03-23T07:17:25.991Z,23.42
2017-03-23T07:18:35.598Z,23.46
2017-03-23T07:19:45.511Z,23.46
2017-03-23T07:20:55.424Z,23.33
2017-03-23T07:22:05.879Z,23.35
2017-03-23T07:23:16.099Z,23.38
2017-03-23T07:24:25.696Z,23.39
2017-03-23T07:25:35.611Z,23.38
2017-03-23T07:26:45.221Z,23.4
2017-03-23T07:27:54.973Z,23.4
2017-03-23T07:29:04.578Z,23.25
2017-03-23T07:30:14.488Z,23.27
2017-03-23T07:31:24.422Z,23.27
2017-03-23T07:32:34.654Z,23.32
2017-03-23T07:33:45.339Z,23.32
2017-03-23T07:34:54.946Z,23.27
2017-03-23T07:36:04.238Z,23.31
2017-03-23T07:37:14.152Z,23.28
2017-03-23T07:38:23.462Z,23.27
2017-03-23T07:39:32.883Z,23.27
2017-03-23T07:40:42.797Z,23.23
2017-03-23T07:41:52.439Z,23.16
2017-03-23T07:43:02.347Z,23.28
2017-03-23T07:44:12.012Z,23.17
2017-03-23T07:45:21.656Z,23.19
2017-03-23T07:46:31.265Z,23.2
2017-03-23T07:47:41.479Z,23.16
2017-03-23T07:48:51.085Z,23.23
2017-03-23T07:50:00.691Z,23.15
2017-03-23T07:51:11.246Z,23.16
2017-03-23T07:52:21.174Z,23.17
2017-03-23T07:53:30.788Z,23.05
2017-03-23T07:54:40.382Z,23.09
2017-03-23T07:55:50.287Z,23.07
2017-03-23T07:57:00.190Z,23.05
2017-03-23T07:58:10.088Z,23.09
2017-03-23T07:59:20.011Z,23.01
2017-03-23T08:00:30.231Z,23.05
2017-03-23T08:01:40.461Z,23.1
2017-03-23T08:02:49.923Z,23.01
2017-03-23T08:03:59.246Z,23.01
2017-03-23T08:05:09.169Z,23.01
2017-03-23T08:06:19.129Z,22.97
2017-03-23T08:07:29.359Z,22.91
2017-03-23T08:08:39.217Z,23.01
2017-03-23T08:09:48.813Z,22.91
2017-03-23T08:10:57.805Z,22.92
2017-03-23T08:12:07.707Z,22.94
2017-03-23T08:13:17.318Z,22.91
2017-03-23T08:14:27.078Z,22.95
2017-03-23T08:15:37.283Z,22.92
2017-03-23T08:16:47.197Z,22.85
2017-03-23T08:17:57.114Z,22.9
2017-03-23T08:19:07.335Z,22.82
2017-03-23T08:20:17.352Z,22.82
2017-03-23T08:21:27.581Z,22.8
2017-03-23T08:22:37.490Z,22.79
2017-03-23T08:23:47.703Z,22.88
2017-03-23T08:24:57.608Z,22.76
2017-03-23T08:26:08.842Z,22.8
2017-03-23T08:27:18.759Z,22.68
2017-03-23T08:28:28.368Z,22.77
2017-03-23T08:29:38.614Z,22.77
2017-03-23T08:30:48.529Z,22.73
2017-03-23T08:31:58.827Z,22.75
2017-03-23T08:33:09.047Z,22.75
2017-03-23T08:34:18.949Z,22.68
2017-03-23T08:35:28.862Z,22.7
2017-03-23T08:36:38.805Z,22.72
2017-03-23T08:37:48.770Z,22.67
2017-03-23T08:38:58.695Z,22.58
2017-03-23T08:40:07.987Z,22.64
2017-03-23T08:41:17.595Z,22.65
2017-03-23T08:42:26.889Z,22.57
2017-03-23T08:43:36.451Z,22.6
2017-03-23T08:44:46.060Z,22.58
2017-03-23T08:45:55.990Z,22.7
2017-03-23T08:47:05.920Z,22.67
2017-03-23T08:48:15.842Z,22.54
2017-03-23T08:49:25.851Z,22.6
2017-03-23T08:50:34.849Z,22.64
2017-03-23T08:51:45.095Z,22.61
2017-03-23T08:52:55.310Z,22.65
2017-03-23T08:54:05.528Z,22.55
2017-03-23T08:55:15.695Z,22.51
2017-03-23T08:56:25.615Z,22.54
2017-03-23T08:57:35.837Z,22.58
2017-03-23T08:58:45.750Z,22.54
2017-03-23T08:59:55.659Z,22.58
2017-03-23T09:01:05.719Z,22.6
2017-03-23T09:02:15.630Z,22.6
2017-03-23T09:03:25.250Z,22.61
2017-03-23T09:04:34.855Z,22.62
2017-03-23T09:05:45.102Z,22.52
2017-03-23T09:06:55.009Z,22.54
2017-03-23T09:08:04.633Z,22.51
2017-03-23T09:09:14.849Z,22.55
2017-03-23T09:10:24.461Z,22.49
2017-03-23T09:11:34.074Z,22.46
2017-03-23T09:12:44.688Z,22.4
2017-03-23T09:13:54.299Z,22.47
2017-03-23T09:15:04.211Z,22.43
2017-03-23T09:16:13.520Z,22.36
2017-03-23T09:17:23.234Z,22.45
2017-03-23T09:18:33.333Z,22.4
2017-03-23T09:19:43.236Z,22.46
2017-03-23T09:20:53.145Z,22.46
2017-03-23T09:22:03.059Z,22.42
2017-03-23T09:23:12.351Z,22.42
2017-03-23T09:24:21.896Z,22.45
2017-03-23T09:25:31.805Z,22.46
2017-03-23T09:26:41.409Z,22.46
2017-03-23T09:27:51.622Z,22.45
2017-03-23T09:29:01.524Z,22.43
2017-03-23T09:30:11.584Z,22.45
2017-03-23T09:31:21.180Z,22.45
2017-03-23T09:32:30.483Z,22.43
2017-03-23T09:33:40.396Z,22.46
2017-03-23T09:34:50.609Z,22.43
2017-03-23T09:36:00.979Z,22.43
2017-03-23T09:37:10.887Z,22.46
2017-03-23T09:38:20.486Z,22.43
2017-03-23T09:39:30.403Z,22.51
2017-03-23T09:40:39.744Z,22.43
2017-03-23T09:41:49.198Z,22.36
2017-03-23T09:42:58.800Z,22.37
2017-03-23T09:44:08.407Z,22.4
2017-03-23T09:45:18.343Z,22.42
2017-03-23T09:46:27.954Z,22.39
2017-03-23T09:47:37.711Z,22.39
2017-03-23T09:48:47.624Z,22.35
2017-03-23T09:49:57.531Z,22.42
2017-03-23T09:51:07.149Z,22.37
2017-03-23T09:52:17.360Z,22.4
2017-03-23T09:53:27.379Z,22.4
2017-03-23T09:54:37.595Z,22.35
2017-03-23T09:55:47.516Z,22.35
2017-03-23T09:56:57.125Z,22.42
2017-03-23T09:58:07.342Z,22.36
2017-03-23T09:59:17.191Z,22.36
2017-03-23T10:00:27.091Z,22.4
2017-03-23T10:01:36.993Z,22.39
2017-03-23T10:02:46.917Z,22.36
2017-03-23T10:03:55.915Z,22.25
2017-03-23T10:05:06.472Z,22.3
2017-03-23T10:06:16.079Z,22.31
2017-03-23T10:07:25.673Z,22.31
2017-03-23T10:08:35.595Z,22.33
2017-03-23T10:09:45.218Z,22.37
2017-03-23T10:10:55.255Z,22.27
2017-03-23T10:12:05.172Z,22.27
2017-03-23T10:13:15.382Z,22.28
2017-03-23T10:14:25.294Z,22.31
2017-03-23T10:15:34.594Z,22.3
2017-03-23T10:16:44.673Z,22.31
2017-03-23T10:17:54.290Z,22.27
2017-03-23T10:19:04.211Z,22.31
2017-03-23T10:20:14.131Z,22.25
2017-03-23T10:21:24.343Z,22.33
2017-03-23T10:22:35.107Z,22.25
2017-03-23T10:23:44.706Z,22.3
2017-03-23T10:24:54.611Z,22.28
2017-03-23T10:26:03.956Z,22.27
2017-03-23T10:27:12.967Z,22.24
2017-03-23T10:28:23.133Z,22.21
2017-03-23T10:29:33.402Z,22.28
2017-03-23T10:30:43.630Z,22.27
2017-03-23T10:31:53.242Z,22.24
2017-03-23T10:33:03.196Z,22.28
2017-03-23T10:34:13.715Z,22.28
2017-03-23T10:35:23.934Z,22.27
2017-03-23T10:36:33.842Z,22.3
2017-03-23T10:37:43.452Z,22.28
2017-03-23T10:38:53.355Z,22.28
2017-03-23T10:40:03.507Z,22.2
2017-03-23T10:41:13.416Z,22.22
2017-03-23T10:42:23.026Z,22.24
2017-03-23T10:43:32.930Z,22.24
2017-03-23T10:44:42.521Z,22.2
2017-03-23T10:45:53.092Z,22.25
2017-03-23T10:47:02.699Z,22.18
2017-03-23T10:48:12.331Z,22.24
2017-03-23T10:49:22.560Z,22.21
2017-03-23T10:50:32.157Z,22.2
2017-03-23T10:51:42.466Z,22.18
2017-03-23T10:52:52.379Z,22.21
2017-03-23T10:54:01.668Z,22.2
2017-03-23T10:55:11.279Z,22.2
2017-03-23T10:56:21.196Z,22.2
2017-03-23T10:57:31.645Z,22.21
2017-03-23T10:58:41.562Z,22.21
2017-03-23T10:59:51.463Z,22.15
2017-03-23T11:01:01.077Z,22.22
2017-03-23T11:02:11.285Z,22.17
2017-03-23T11:03:21.345Z,22.18
2017-03-23T11:04:31.249Z,22.18
2017-03-23T11:05:41.475Z,22.25
2017-03-23T11:06:51.384Z,22.2
2017-03-23T11:08:01.596Z,22.22
2017-03-23T11:09:12.808Z,22.24
2017-03-23T11:10:23.027Z,22.21
2017-03-23T11:11:32.925Z,22.22
2017-03-23T11:12:42.833Z,22.2
2017-03-23T11:13:52.131Z,22.18
2017-03-23T11:15:02.297Z,22.21
2017-03-23T11:16:11.903Z,22.18
2017-03-23T11:17:21.804Z,22.2
2017-03-23T11:18:31.409Z,22.24
2017-03-23T11:19:40.708Z,22.2
2017-03-23T11:20:51.176Z,22.21
2017-03-23T11:22:01.072Z,22.25
2017-03-23T11:23:10.667Z,22.2
2017-03-23T11:24:20.580Z,22.2
2017-03-23T11:25:30.791Z,22.22
2017-03-23T11:26:40.606Z,22.22
2017-03-23T11:27:50.830Z,22.21
2017-03-23T11:29:00.144Z,22.22
2017-03-23T11:30:10.067Z,22.24
2017-03-23T11:31:20.289Z,22.22
2017-03-23T11:32:30.442Z,22.14
2017-03-23T11:33:40.665Z,22.24
2017-03-23T11:34:50.571Z,22.2
2017-03-23T11:36:00.791Z,22.21
2017-03-23T11:37:10.079Z,22.18
2017-03-23T11:38:20.150Z,22.22
2017-03-23T11:39:30.092Z,22.27
2017-03-23T11:40:39.085Z,22.21
2017-03-23T11:41:49.009Z,22.14
2017-03-23T11:42:59.229Z,22.2
2017-03-23T11:44:09.134Z,22.24
2017-03-23T11:45:19.349Z,22.22
2017-03-23T11:46:29.592Z,22.18
2017-03-23T11:47:39.496Z,22.21
2017-03-23T11:48:49.462Z,22.22
2017-03-23T11:49:59.415Z,22.24
2017-03-23T11:51:09.646Z,22.09
2017-03-23T11:52:19.265Z,22.18
2017-03-23T11:53:29.178Z,22.18
2017-03-23T11:54:38.785Z,22.21
2017-03-23T11:55:48.937Z,22.22
2017-03-23T11:56:58.832Z,22.24
2017-03-23T11:58:08.743Z,22.15
2017-03-23T11:59:18.343Z,22.14
2017-03-23T12:00:27.637Z,22.22
2017-03-23T12:01:37.971Z,22.15
2017-03-23T12:02:47.583Z,22.14
2017-03-23T12:03:57.211Z,22.15
2017-03-23T12:05:06.840Z,22.25
2017-03-23T12:06:16.774Z,22.22
2017-03-23T12:07:26.732Z,22.15
2017-03-23T12:08:36.650Z,22.27
2017-03-23T12:09:46.263Z,22.18
2017-03-23T12:10:55.876Z,22.15
2017-03-23T12:12:05.813Z,22.22
2017-03-23T12:13:16.000Z,22.22
2017-03-23T12:14:25.622Z,22.22
2017-03-23T12:15:34.957Z,22.24
2017-03-23T12:16:43.962Z,22.21
2017-03-23T12:17:53.600Z,22.21
2017-03-23T12:19:03.336Z,22.21
2017-03-23T12:20:13.580Z,22.21
2017-03-23T12:21:23.820Z,22.15
2017-03-23T12:22:33.734Z,22.18
2017-03-23T12:23:43.377Z,22.2
2017-03-23T12:24:52.922Z,22.21
2017-03-23T12:26:02.527Z,22.24
2017-03-23T12:27:12.500Z,22.21
2017-03-23T12:28:22.421Z,22.21
2017-03-23T12:29:32.379Z,22.21
2017-03-23T12:30:42.678Z,22.24
2017-03-23T12:31:52.898Z,22.22
2017-03-23T12:33:02.821Z,22.21
2017-03-23T12:34:12.249Z,22.21
2017-03-23T12:35:21.865Z,22.22
2017-03-23T12:36:31.945Z,22.21
2017-03-23T12:37:41.547Z,22.22
2017-03-23T12:38:51.151Z,22.2
2017-03-23T12:40:01.063Z,22.27
2017-03-23T12:41:10.965Z,22.22
2017-03-23T12:42:20.611Z,22.2
2017-03-23T12:43:29.907Z,22.2
2017-03-23T12:44:38.906Z,22.17
2017-03-23T12:45:48.845Z,22.18
2017-03-23T12:46:58.759Z,22.17
2017-03-23T12:48:08.825Z,22.18
2017-03-23T12:49:18.738Z,22.2
2017-03-23T12:50:28.354Z,22.2
2017-03-23T12:51:37.656Z,22.22
2017-03-23T12:52:47.275Z,22.22
2017-03-23T12:53:57.747Z,22.24
2017-03-23T12:55:07.656Z,22.2
2017-03-23T12:56:17.881Z,22.27
2017-03-23T12:57:27.492Z,22.22
2017-03-23T12:58:36.828Z,22.28
2017-03-23T12:59:47.033Z,22.25
2017-03-23T13:00:56.666Z,22.28
2017-03-23T13:02:06.585Z,22.28
2017-03-23T13:03:16.189Z,22.25
2017-03-23T13:04:25.794Z,22.21
2017-03-23T13:05:36.903Z,22.28
2017-03-23T13:06:46.833Z,22.22
2017-03-23T13:07:56.425Z,22.3
2017-03-23T13:09:06.044Z,22.33
2017-03-23T13:10:16.004Z,22.33
2017-03-23T13:11:26.080Z,22.3
2017-03-23T13:12:35.990Z,22.24
2017-03-23T13:13:45.909Z,22.31
2017-03-23T13:14:55.835Z,22.36
2017-03-23T13:16:06.069Z,22.27
2017-03-23T13:17:16.273Z,22.25
2017-03-23T13:18:26.485Z,22.24
2017-03-23T13:19:36.174Z,22.28
2017-03-23T13:20:46.157Z,22.28
2017-03-23T13:21:55.811Z,22.35
2017-03-23T13:23:05.724Z,22.28
2017-03-23T13:24:15.622Z,22.28
2017-03-23T13:25:24.915Z,22.33
2017-03-23T13:26:34.818Z,22.4
2017-03-23T13:27:44.116Z,22.33
2017-03-23T13:28:53.563Z,22.33
2017-03-23T13:30:03.468Z,22.35
2017-03-23T13:31:13.384Z,22.37
2017-03-23T13:32:23.294Z,22.4
2017-03-23T13:33:33.276Z,22.36
2017-03-23T13:34:43.742Z,22.33
2017-03-23T13:35:53.965Z,22.39
2017-03-23T13:37:03.637Z,22.33
2017-03-23T13:38:13.558Z,22.4
2017-03-23T13:39:23.486Z,22.33
2017-03-23T13:40:33.703Z,22.42
2017-03-23T13:41:43.623Z,22.37
2017-03-23T13:42:53.540Z,22.39
2017-03-23T13:44:03.487Z,22.39
2017-03-23T13:45:13.403Z,22.39
2017-03-23T13:46:23.362Z,22.36
2017-03-23T13:47:35.084Z,22.45
2017-03-23T13:48:46.008Z,22.4
2017-03-23T13:49:56.618Z,22.43
2017-03-23T13:51:06.829Z,22.35
2017-03-23T13:52:17.354Z,22.46
2017-03-23T13:53:26.654Z,22.42
2017-03-23T13:54:36.561Z,22.46
2017-03-23T13:55:46.464Z,22.45
2017-03-23T13:56:56.376Z,22.47
2017-03-23T13:58:06.722Z,22.36
2017-03-23T13:59:16.311Z,22.45
2017-03-23T14:00:25.908Z,22.46
2017-03-23T14:01:35.198Z,22.43
2017-03-23T14:02:44.807Z,22.37
2017-03-23T14:03:55.010Z,22.42
2017-03-23T14:05:04.907Z,22.39
2017-03-23T14:06:14.520Z,22.4
2017-03-23T14:07:24.426Z,22.43
2017-03-23T14:08:34.347Z,22.39
2017-03-23T14:09:44.409Z,22.43
2017-03-23T14:10:54.338Z,22.42
2017-03-23T14:12:04.243Z,22.42
2017-03-23T14:13:13.855Z,22.46
2017-03-23T14:14:24.063Z,22.47
2017-03-23T14:15:34.638Z,22.42
2017-03-23T14:16:43.946Z,22.42
2017-03-23T14:17:53.557Z,22.37
2017-03-23T14:19:03.537Z,22.39
2017-03-23T14:20:13.457Z,22.37
2017-03-23T14:21:23.507Z,22.49
2017-03-23T14:22:33.110Z,22.45
2017-03-23T14:23:43.007Z,22.47
2017-03-23T14:24:52.294Z,22.46
2017-03-23T14:26:02.215Z,22.39
2017-03-23T14:27:12.435Z,22.45
2017-03-23T14:28:21.727Z,22.45
2017-03-23T14:29:31.328Z,22.45
2017-03-23T14:30:41.252Z,22.47
2017-03-23T14:31:50.533Z,22.46
2017-03-23T14:33:01.348Z,22.45
2017-03-23T14:34:11.266Z,22.47
2017-03-23T14:35:21.178Z,22.46
2017-03-23T14:36:31.100Z,22.43
2017-03-23T14:37:41.319Z,22.43
2017-03-23T14:38:51.338Z,22.42
2017-03-23T14:40:00.330Z,22.46
2017-03-23T14:41:09.941Z,22.45
2017-03-23T14:42:19.243Z,22.45
2017-03-23T14:43:29.482Z,22.46
2017-03-23T14:44:39.541Z,22.46
2017-03-23T14:45:49.456Z,22.43
2017-03-23T14:46:59.373Z,22.49
2017-03-23T14:48:09.620Z,22.47
2017-03-23T14:49:19.244Z,22.46
2017-03-23T14:50:29.597Z,22.47
2017-03-23T14:51:38.898Z,22.45
2017-03-23T14:52:48.510Z,22.43
2017-03-23T14:53:57.803Z,22.4
2017-03-23T14:55:07.424Z,22.46
2017-03-23T14:56:16.760Z,22.43
2017-03-23T14:57:26.675Z,22.49
2017-03-23T14:58:36.901Z,22.46
2017-03-23T14:59:46.832Z,22.47
2017-03-23T15:00:56.742Z,22.45
2017-03-23T15:02:07.020Z,22.45
2017-03-23T15:03:16.636Z,22.4